sensor_id;sensor_type;location;lat;lon;timestamp;temperature;humidity
16863;DHT22;52193;48.216;-1.698;2023-11-18T00:01:35;14.30;99.90
16863;DHT22;52193;48.216;-1.698;2023-11-18T00:04:02;14.30;99.90
16863;DHT22;52193;48.216;-1.698;2023-11-18T00:06:29;14.30;99.90
16863;DHT22;52193;48.216;-1.698;2023-11-18T00:08:56;14.30;99.90
16863;DHT22;52193;48.216;-1.698;2023-11-18T00:11:23;14.30;99.90
16863;DHT22;52193;48.216;-1.698;2023-11-18T00:13:50;14.30;99.90
16863;DHT22;52193;48.216;-1.698;2023-11-18T00:16:18;14.30;99.90
16863;DHT22;52193;48.216;-1.698;2023-11-18T00:18:45;14.30;99.90
16863;DHT22;52193;48.216;-1.698;2023-11-18T00:21:11;14.30;99.90
16863;DHT22;52193;48.216;-1.698;2023-11-18T00:23:38;14.20;99.90
16863;DHT22;52193;48.216;-1.698;2023-11-18T00:26:05;14.30;99.90
16863;DHT22;52193;48.216;-1.698;2023-11-18T00:28:34;14.20;99.90
16863;DHT22;52193;48.216;-1.698;2023-11-18T00:31:00;14.30;99.90
16863;DHT22;52193;48.216;-1.698;2023-11-18T00:33:31;14.30;99.90
16863;DHT22;52193;48.216;-1.698;2023-11-18T00:35:57;14.30;99.90
16863;DHT22;52193;48.216;-1.698;2023-11-18T00:38:25;14.30;99.90
16863;DHT22;52193;48.216;-1.698;2023-11-18T00:40:52;14.30;99.90
16863;DHT22;52193;48.216;-1.698;2023-11-18T00:43:19;14.30;99.90
16863;DHT22;52193;48.216;-1.698;2023-11-18T00:45:48;14.30;99.90
16863;DHT22;52193;48.216;-1.698;2023-11-18T00:48:14;14.30;99.90
16863;DHT22;52193;48.216;-1.698;2023-11-18T00:50:43;14.30;99.90
16863;DHT22;52193;48.216;-1.698;2023-11-18T00:53:09;14.30;99.90
16863;DHT22;52193;48.216;-1.698;2023-11-18T00:55:36;14.20;99.90
16863;DHT22;52193;48.216;-1.698;2023-11-18T00:58:03;14.30;99.90
16863;DHT22;52193;48.216;-1.698;2023-11-18T01:00:31;14.30;99.90
16863;DHT22;52193;48.216;-1.698;2023-11-18T01:02:58;14.20;99.90
16863;DHT22;52193;48.216;-1.698;2023-11-18T01:05:25;14.20;99.90
16863;DHT22;52193;48.216;-1.698;2023-11-18T01:07:53;14.20;99.90
16863;DHT22;52193;48.216;-1.698;2023-11-18T01:10:20;14.20;99.90
16863;DHT22;52193;48.216;-1.698;2023-11-18T01:12:46;14.20;99.90
16863;DHT22;52193;48.216;-1.698;2023-11-18T01:15:13;14.20;99.90
16863;DHT22;52193;48.216;-1.698;2023-11-18T01:17:40;14.20;99.90
16863;DHT22;52193;48.216;-1.698;2023-11-18T01:20:08;14.20;99.90
16863;DHT22;52193;48.216;-1.698;2023-11-18T01:22:36;14.10;99.90
16863;DHT22;52193;48.216;-1.698;2023-11-18T01:25:06;14.10;99.90
16863;DHT22;52193;48.216;-1.698;2023-11-18T01:27:34;14.10;99.90
16863;DHT22;52193;48.216;-1.698;2023-11-18T01:30:01;14.10;99.90
16863;DHT22;52193;48.216;-1.698;2023-11-18T01:32:29;14.10;99.90
16863;DHT22;52193;48.216;-1.698;2023-11-18T01:34:56;14.10;99.90
16863;DHT22;52193;48.216;-1.698;2023-11-18T01:37:23;14.10;99.90
16863;DHT22;52193;48.216;-1.698;2023-11-18T01:39:50;14.10;99.90
16863;DHT22;52193;48.216;-1.698;2023-11-18T01:42:18;14.10;99.90
16863;DHT22;52193;48.216;-1.698;2023-11-18T01:44:46;14.10;99.90
16863;DHT22;52193;48.216;-1.698;2023-11-18T01:47:13;14.20;99.90
16863;DHT22;52193;48.216;-1.698;2023-11-18T01:49:40;14.20;99.90
16863;DHT22;52193;48.216;-1.698;2023-11-18T01:52:09;14.10;99.90
16863;DHT22;52193;48.216;-1.698;2023-11-18T01:54:37;14.20;99.90
16863;DHT22;52193;48.216;-1.698;2023-11-18T01:57:05;14.20;99.90
16863;DHT22;52193;48.216;-1.698;2023-11-18T01:59:36;14.10;99.90
16863;DHT22;52193;48.216;-1.698;2023-11-18T02:02:06;14.10;99.90
16863;DHT22;52193;48.216;-1.698;2023-11-18T02:04:32;14.10;99.90
16863;DHT22;52193;48.216;-1.698;2023-11-18T02:06:59;14.10;99.90
16863;DHT22;52193;48.216;-1.698;2023-11-18T02:09:29;14.10;99.90
16863;DHT22;52193;48.216;-1.698;2023-11-18T02:12:00;14.10;99.90
16863;DHT22;52193;48.216;-1.698;2023-11-18T02:14:32;14.10;99.90
16863;DHT22;52193;48.216;-1.698;2023-11-18T02:17:05;14.10;99.90
16863;DHT22;52193;48.216;-1.698;2023-11-18T02:19:35;14.10;99.90
16863;DHT22;52193;48.216;-1.698;2023-11-18T02:22:02;14.20;99.90
16863;DHT22;52193;48.216;-1.698;2023-11-18T02:24:34;14.20;99.90
16863;DHT22;52193;48.216;-1.698;2023-11-18T02:27:05;14.20;99.90
16863;DHT22;52193;48.216;-1.698;2023-11-18T02:29:34;14.20;99.90
16863;DHT22;52193;48.216;-1.698;2023-11-18T02:32:09;14.10;99.90
16863;DHT22;52193;48.216;-1.698;2023-11-18T02:34:43;14.10;99.90
16863;DHT22;52193;48.216;-1.698;2023-11-18T02:37:13;14.10;99.90
16863;DHT22;52193;48.216;-1.698;2023-11-18T02:39:43;14.10;99.90
16863;DHT22;52193;48.216;-1.698;2023-11-18T02:42:13;14.10;99.90
16863;DHT22;52193;48.216;-1.698;2023-11-18T02:44:41;14.10;99.90
16863;DHT22;52193;48.216;-1.698;2023-11-18T02:47:10;14.20;99.90
16863;DHT22;52193;48.216;-1.698;2023-11-18T02:49:37;14.20;99.90
16863;DHT22;52193;48.216;-1.698;2023-11-18T02:52:04;14.20;99.90
16863;DHT22;52193;48.216;-1.698;2023-11-18T02:54:31;14.20;99.90
16863;DHT22;52193;48.216;-1.698;2023-11-18T02:56:58;14.20;99.90
16863;DHT22;52193;48.216;-1.698;2023-11-18T02:59:26;14.20;99.90
16863;DHT22;52193;48.216;-1.698;2023-11-18T03:01:55;14.20;99.90
16863;DHT22;52193;48.216;-1.698;2023-11-18T03:04:22;14.20;99.90
16863;DHT22;52193;48.216;-1.698;2023-11-18T03:06:50;14.20;99.90
16863;DHT22;52193;48.216;-1.698;2023-11-18T03:09:17;14.30;99.90
16863;DHT22;52193;48.216;-1.698;2023-11-18T03:11:44;14.30;99.90
16863;DHT22;52193;48.216;-1.698;2023-11-18T03:14:11;14.30;99.90
16863;DHT22;52193;48.216;-1.698;2023-11-18T03:16:39;14.20;99.90
16863;DHT22;52193;48.216;-1.698;2023-11-18T03:19:06;14.30;99.90
16863;DHT22;52193;48.216;-1.698;2023-11-18T03:21:34;14.30;99.90
16863;DHT22;52193;48.216;-1.698;2023-11-18T03:24:02;14.30;99.90
16863;DHT22;52193;48.216;-1.698;2023-11-18T03:26:29;14.30;99.90
16863;DHT22;52193;48.216;-1.698;2023-11-18T03:28:57;14.30;99.90
16863;DHT22;52193;48.216;-1.698;2023-11-18T03:31:24;14.30;99.90
16863;DHT22;52193;48.216;-1.698;2023-11-18T03:33:53;14.30;99.90
16863;DHT22;52193;48.216;-1.698;2023-11-18T03:36:19;14.30;99.90
16863;DHT22;52193;48.216;-1.698;2023-11-18T03:38:46;14.30;99.90
16863;DHT22;52193;48.216;-1.698;2023-11-18T03:41:13;14.30;99.90
16863;DHT22;52193;48.216;-1.698;2023-11-18T03:43:40;14.30;99.90
16863;DHT22;52193;48.216;-1.698;2023-11-18T03:46:07;14.30;99.90
16863;DHT22;52193;48.216;-1.698;2023-11-18T03:48:34;14.30;99.90
16863;DHT22;52193;48.216;-1.698;2023-11-18T03:51:03;14.30;99.90
16863;DHT22;52193;48.216;-1.698;2023-11-18T03:53:30;14.30;99.90
16863;DHT22;52193;48.216;-1.698;2023-11-18T03:55:59;14.30;99.90
16863;DHT22;52193;48.216;-1.698;2023-11-18T03:58:26;14.30;99.90
16863;DHT22;52193;48.216;-1.698;2023-11-18T04:00:53;14.30;99.90
16863;DHT22;52193;48.216;-1.698;2023-11-18T04:03:20;14.40;99.90
16863;DHT22;52193;48.216;-1.698;2023-11-18T04:05:48;14.40;99.90
16863;DHT22;52193;48.216;-1.698;2023-11-18T04:08:16;14.40;99.90
16863;DHT22;52193;48.216;-1.698;2023-11-18T04:10:43;14.40;99.90
16863;DHT22;52193;48.216;-1.698;2023-11-18T04:13:10;14.40;99.90
16863;DHT22;52193;48.216;-1.698;2023-11-18T04:15:36;14.40;99.90
16863;DHT22;52193;48.216;-1.698;2023-11-18T04:18:04;14.50;99.90
16863;DHT22;52193;48.216;-1.698;2023-11-18T04:20:32;14.50;99.90
16863;DHT22;52193;48.216;-1.698;2023-11-18T04:22:58;14.40;99.90
16863;DHT22;52193;48.216;-1.698;2023-11-18T04:25:27;14.50;99.90
16863;DHT22;52193;48.216;-1.698;2023-11-18T04:27:53;14.50;99.90
16863;DHT22;52193;48.216;-1.698;2023-11-18T04:30:20;14.50;99.90
16863;DHT22;52193;48.216;-1.698;2023-11-18T04:32:47;14.50;99.90
16863;DHT22;52193;48.216;-1.698;2023-11-18T04:35:14;14.50;99.90
16863;DHT22;52193;48.216;-1.698;2023-11-18T04:37:41;14.50;99.90
16863;DHT22;52193;48.216;-1.698;2023-11-18T04:40:11;14.50;99.90
16863;DHT22;52193;48.216;-1.698;2023-11-18T04:42:40;14.50;99.90
16863;DHT22;52193;48.216;-1.698;2023-11-18T04:45:07;14.50;99.90
16863;DHT22;52193;48.216;-1.698;2023-11-18T04:47:35;14.50;99.90
16863;DHT22;52193;48.216;-1.698;2023-11-18T04:50:03;14.60;99.90
16863;DHT22;52193;48.216;-1.698;2023-11-18T04:52:31;14.60;99.90
16863;DHT22;52193;48.216;-1.698;2023-11-18T04:55:00;14.60;99.90
16863;DHT22;52193;48.216;-1.698;2023-11-18T04:57:27;14.60;99.90
16863;DHT22;52193;48.216;-1.698;2023-11-18T04:59:55;14.60;99.90
16863;DHT22;52193;48.216;-1.698;2023-11-18T05:02:22;14.60;99.90
16863;DHT22;52193;48.216;-1.698;2023-11-18T05:04:49;14.60;99.90
16863;DHT22;52193;48.216;-1.698;2023-11-18T05:07:16;14.60;99.90
16863;DHT22;52193;48.216;-1.698;2023-11-18T05:09:43;14.60;99.90
16863;DHT22;52193;48.216;-1.698;2023-11-18T05:12:10;14.60;99.90
16863;DHT22;52193;48.216;-1.698;2023-11-18T05:14:36;14.70;99.90
16863;DHT22;52193;48.216;-1.698;2023-11-18T05:17:05;14.60;99.90
16863;DHT22;52193;48.216;-1.698;2023-11-18T05:19:32;14.70;99.90
16863;DHT22;52193;48.216;-1.698;2023-11-18T05:21:59;14.70;99.90
16863;DHT22;52193;48.216;-1.698;2023-11-18T05:24:26;14.70;99.90
16863;DHT22;52193;48.216;-1.698;2023-11-18T05:26:53;14.70;99.90
16863;DHT22;52193;48.216;-1.698;2023-11-18T05:29:21;14.70;99.90
16863;DHT22;52193;48.216;-1.698;2023-11-18T05:31:51;14.70;99.90
16863;DHT22;52193;48.216;-1.698;2023-11-18T05:34:19;14.70;99.90
16863;DHT22;52193;48.216;-1.698;2023-11-18T05:36:46;14.70;99.90
16863;DHT22;52193;48.216;-1.698;2023-11-18T05:39:16;14.80;99.90
16863;DHT22;52193;48.216;-1.698;2023-11-18T05:41:45;14.80;99.90
16863;DHT22;52193;48.216;-1.698;2023-11-18T05:44:15;14.80;99.90
16863;DHT22;52193;48.216;-1.698;2023-11-18T05:46:45;14.80;99.90
16863;DHT22;52193;48.216;-1.698;2023-11-18T05:49:13;14.80;99.90
16863;DHT22;52193;48.216;-1.698;2023-11-18T05:51:41;14.80;99.90
16863;DHT22;52193;48.216;-1.698;2023-11-18T05:54:08;14.80;99.90
16863;DHT22;52193;48.216;-1.698;2023-11-18T05:56:35;14.80;99.90
16863;DHT22;52193;48.216;-1.698;2023-11-18T05:59:03;14.80;99.90
16863;DHT22;52193;48.216;-1.698;2023-11-18T06:01:30;14.80;99.90
16863;DHT22;52193;48.216;-1.698;2023-11-18T06:03:57;14.80;99.90
16863;DHT22;52193;48.216;-1.698;2023-11-18T06:06:24;14.80;99.90
16863;DHT22;52193;48.216;-1.698;2023-11-18T06:08:53;14.80;99.90
16863;DHT22;52193;48.216;-1.698;2023-11-18T06:11:20;14.80;99.90
16863;DHT22;52193;48.216;-1.698;2023-11-18T06:13:49;14.90;99.90
16863;DHT22;52193;48.216;-1.698;2023-11-18T06:16:17;14.90;99.90
16863;DHT22;52193;48.216;-1.698;2023-11-18T06:18:46;14.90;99.90
16863;DHT22;52193;48.216;-1.698;2023-11-18T06:21:14;14.80;99.90
16863;DHT22;52193;48.216;-1.698;2023-11-18T06:23:41;14.90;99.90
16863;DHT22;52193;48.216;-1.698;2023-11-18T06:26:10;14.90;99.90
16863;DHT22;52193;48.216;-1.698;2023-11-18T06:28:38;14.90;99.90
16863;DHT22;52193;48.216;-1.698;2023-11-18T06:31:06;14.90;99.90
16863;DHT22;52193;48.216;-1.698;2023-11-18T06:33:38;14.90;99.90
16863;DHT22;52193;48.216;-1.698;2023-11-18T06:36:08;14.90;99.90
16863;DHT22;52193;48.216;-1.698;2023-11-18T06:38:36;14.90;99.90
16863;DHT22;52193;48.216;-1.698;2023-11-18T06:41:04;15.00;99.90
16863;DHT22;52193;48.216;-1.698;2023-11-18T06:43:35;15.00;99.90
16863;DHT22;52193;48.216;-1.698;2023-11-18T06:46:17;15.00;99.90
16863;DHT22;52193;48.216;-1.698;2023-11-18T06:48:46;15.00;99.90
16863;DHT22;52193;48.216;-1.698;2023-11-18T06:51:13;15.00;99.90
16863;DHT22;52193;48.216;-1.698;2023-11-18T06:53:41;15.00;99.90
16863;DHT22;52193;48.216;-1.698;2023-11-18T06:56:09;15.00;99.90
16863;DHT22;52193;48.216;-1.698;2023-11-18T06:58:38;15.00;99.90
16863;DHT22;52193;48.216;-1.698;2023-11-18T07:01:06;15.00;99.90
16863;DHT22;52193;48.216;-1.698;2023-11-18T07:03:33;15.00;99.90
16863;DHT22;52193;48.216;-1.698;2023-11-18T07:06:01;15.00;99.90
16863;DHT22;52193;48.216;-1.698;2023-11-18T07:08:28;15.00;99.90
16863;DHT22;52193;48.216;-1.698;2023-11-18T07:10:55;15.00;99.90
16863;DHT22;52193;48.216;-1.698;2023-11-18T07:13:22;15.10;99.90
16863;DHT22;52193;48.216;-1.698;2023-11-18T07:15:50;15.10;99.90
16863;DHT22;52193;48.216;-1.698;2023-11-18T07:18:19;15.10;99.90
16863;DHT22;52193;48.216;-1.698;2023-11-18T07:20:48;15.10;99.90
16863;DHT22;52193;48.216;-1.698;2023-11-18T07:23:14;15.10;99.90
16863;DHT22;52193;48.216;-1.698;2023-11-18T07:25:43;15.10;99.90
16863;DHT22;52193;48.216;-1.698;2023-11-18T07:28:10;15.10;99.90
16863;DHT22;52193;48.216;-1.698;2023-11-18T07:30:37;15.10;99.90
16863;DHT22;52193;48.216;-1.698;2023-11-18T07:33:05;15.10;99.90
16863;DHT22;52193;48.216;-1.698;2023-11-18T07:35:34;15.10;99.90
16863;DHT22;52193;48.216;-1.698;2023-11-18T07:38:02;15.10;99.90
16863;DHT22;52193;48.216;-1.698;2023-11-18T07:40:29;15.10;99.90
16863;DHT22;52193;48.216;-1.698;2023-11-18T07:42:55;15.10;99.90
16863;DHT22;52193;48.216;-1.698;2023-11-18T07:45:22;15.10;99.90
16863;DHT22;52193;48.216;-1.698;2023-11-18T07:47:49;15.10;99.90
16863;DHT22;52193;48.216;-1.698;2023-11-18T07:50:18;15.10;99.90
16863;DHT22;52193;48.216;-1.698;2023-11-18T07:52:45;15.10;99.90
16863;DHT22;52193;48.216;-1.698;2023-11-18T07:55:12;15.10;99.90
16863;DHT22;52193;48.216;-1.698;2023-11-18T07:57:39;15.10;99.90
16863;DHT22;52193;48.216;-1.698;2023-11-18T08:00:07;15.20;99.90
16863;DHT22;52193;48.216;-1.698;2023-11-18T08:02:36;15.20;99.90
16863;DHT22;52193;48.216;-1.698;2023-11-18T08:05:03;15.20;99.90
16863;DHT22;52193;48.216;-1.698;2023-11-18T08:07:34;15.20;99.90
16863;DHT22;52193;48.216;-1.698;2023-11-18T08:10:01;15.20;99.90
16863;DHT22;52193;48.216;-1.698;2023-11-18T08:12:30;15.20;99.90
16863;DHT22;52193;48.216;-1.698;2023-11-18T08:14:56;15.20;99.90
16863;DHT22;52193;48.216;-1.698;2023-11-18T08:17:24;15.20;99.90
16863;DHT22;52193;48.216;-1.698;2023-11-18T08:19:52;15.20;99.90
16863;DHT22;52193;48.216;-1.698;2023-11-18T08:22:19;15.20;99.90
16863;DHT22;52193;48.216;-1.698;2023-11-18T08:24:49;15.30;99.90
16863;DHT22;52193;48.216;-1.698;2023-11-18T08:27:17;15.30;99.90
16863;DHT22;52193;48.216;-1.698;2023-11-18T08:29:44;15.30;99.90
16863;DHT22;52193;48.216;-1.698;2023-11-18T08:32:14;15.30;99.90
16863;DHT22;52193;48.216;-1.698;2023-11-18T08:34:41;15.40;99.90
16863;DHT22;52193;48.216;-1.698;2023-11-18T08:37:08;15.40;99.90
16863;DHT22;52193;48.216;-1.698;2023-11-18T08:39:35;15.40;99.90
16863;DHT22;52193;48.216;-1.698;2023-11-18T08:42:04;15.40;99.90
16863;DHT22;52193;48.216;-1.698;2023-11-18T08:44:33;15.40;99.90
16863;DHT22;52193;48.216;-1.698;2023-11-18T08:47:00;15.40;99.90
16863;DHT22;52193;48.216;-1.698;2023-11-18T08:49:31;15.40;99.90
16863;DHT22;52193;48.216;-1.698;2023-11-18T08:51:59;15.50;99.90
16863;DHT22;52193;48.216;-1.698;2023-11-18T08:54:32;15.50;99.90
16863;DHT22;52193;48.216;-1.698;2023-11-18T08:57:05;15.50;99.90
16863;DHT22;52193;48.216;-1.698;2023-11-18T08:59:49;15.50;99.90
16863;DHT22;52193;48.216;-1.698;2023-11-18T09:02:17;15.60;99.90
16863;DHT22;52193;48.216;-1.698;2023-11-18T09:04:48;15.60;99.90
16863;DHT22;52193;48.216;-1.698;2023-11-18T09:07:15;15.60;99.90
16863;DHT22;52193;48.216;-1.698;2023-11-18T09:09:43;15.60;99.90
16863;DHT22;52193;48.216;-1.698;2023-11-18T09:12:12;15.60;99.90
16863;DHT22;52193;48.216;-1.698;2023-11-18T09:14:40;15.60;99.90
16863;DHT22;52193;48.216;-1.698;2023-11-18T09:17:08;15.70;99.90
16863;DHT22;52193;48.216;-1.698;2023-11-18T09:19:35;15.70;99.90
16863;DHT22;52193;48.216;-1.698;2023-11-18T09:22:03;15.70;99.90
16863;DHT22;52193;48.216;-1.698;2023-11-18T09:24:30;15.70;99.90
16863;DHT22;52193;48.216;-1.698;2023-11-18T09:26:58;15.70;99.90
16863;DHT22;52193;48.216;-1.698;2023-11-18T09:29:27;15.80;99.90
16863;DHT22;52193;48.216;-1.698;2023-11-18T09:31:53;15.80;99.90
16863;DHT22;52193;48.216;-1.698;2023-11-18T09:34:20;15.80;99.90
16863;DHT22;52193;48.216;-1.698;2023-11-18T09:36:53;15.80;99.90
16863;DHT22;52193;48.216;-1.698;2023-11-18T09:39:20;15.80;99.90
16863;DHT22;52193;48.216;-1.698;2023-11-18T09:42:04;15.90;99.90
16863;DHT22;52193;48.216;-1.698;2023-11-18T09:44:36;15.90;99.90
16863;DHT22;52193;48.216;-1.698;2023-11-18T09:47:07;15.90;99.90
16863;DHT22;52193;48.216;-1.698;2023-11-18T09:49:40;15.90;99.90
16863;DHT22;52193;48.216;-1.698;2023-11-18T09:52:09;15.90;99.90
16863;DHT22;52193;48.216;-1.698;2023-11-18T09:54:48;16.00;99.90
16863;DHT22;52193;48.216;-1.698;2023-11-18T09:57:23;16.00;99.90
16863;DHT22;52193;48.216;-1.698;2023-11-18T10:00:00;16.00;99.90
16863;DHT22;52193;48.216;-1.698;2023-11-18T10:02:38;16.00;99.90
16863;DHT22;52193;48.216;-1.698;2023-11-18T10:05:06;16.00;99.90
16863;DHT22;52193;48.216;-1.698;2023-11-18T10:07:38;16.10;99.90
16863;DHT22;52193;48.216;-1.698;2023-11-18T10:10:07;16.00;99.90
16863;DHT22;52193;48.216;-1.698;2023-11-18T10:12:40;16.10;99.90
16863;DHT22;52193;48.216;-1.698;2023-11-18T10:15:11;16.10;99.90
16863;DHT22;52193;48.216;-1.698;2023-11-18T10:17:41;16.10;99.90
16863;DHT22;52193;48.216;-1.698;2023-11-18T10:20:21;16.10;99.90
16863;DHT22;52193;48.216;-1.698;2023-11-18T10:23:05;16.10;99.90
16863;DHT22;52193;48.216;-1.698;2023-11-18T10:25:35;16.10;99.90
16863;DHT22;52193;48.216;-1.698;2023-11-18T10:28:06;16.20;99.90
16863;DHT22;52193;48.216;-1.698;2023-11-18T10:30:44;16.20;99.90
16863;DHT22;52193;48.216;-1.698;2023-11-18T10:33:14;16.20;99.90
16863;DHT22;52193;48.216;-1.698;2023-11-18T10:35:49;16.20;99.90
16863;DHT22;52193;48.216;-1.698;2023-11-18T10:38:16;16.20;99.90
16863;DHT22;52193;48.216;-1.698;2023-11-18T10:40:43;16.20;99.90
16863;DHT22;52193;48.216;-1.698;2023-11-18T10:43:10;16.20;99.90
16863;DHT22;52193;48.216;-1.698;2023-11-18T10:45:37;16.30;99.90
16863;DHT22;52193;48.216;-1.698;2023-11-18T10:48:07;16.30;99.90
16863;DHT22;52193;48.216;-1.698;2023-11-18T10:50:34;16.30;99.90
16863;DHT22;52193;48.216;-1.698;2023-11-18T10:53:02;16.30;99.90
16863;DHT22;52193;48.216;-1.698;2023-11-18T10:55:37;16.30;99.90
16863;DHT22;52193;48.216;-1.698;2023-11-18T10:58:04;16.40;99.90
16863;DHT22;52193;48.216;-1.698;2023-11-18T11:00:46;16.40;99.90
16863;DHT22;52193;48.216;-1.698;2023-11-18T11:03:15;16.40;99.90
16863;DHT22;52193;48.216;-1.698;2023-11-18T11:05:44;16.40;99.90
16863;DHT22;52193;48.216;-1.698;2023-11-18T11:08:13;16.40;99.90
16863;DHT22;52193;48.216;-1.698;2023-11-18T11:10:42;16.50;99.90
16863;DHT22;52193;48.216;-1.698;2023-11-18T11:13:09;16.50;99.90
16863;DHT22;52193;48.216;-1.698;2023-11-18T11:15:41;16.50;99.90
16863;DHT22;52193;48.216;-1.698;2023-11-18T11:18:20;16.60;99.90
16863;DHT22;52193;48.216;-1.698;2023-11-18T11:20:57;16.60;99.90
16863;DHT22;52193;48.216;-1.698;2023-11-18T11:23:42;16.60;99.90
16863;DHT22;52193;48.216;-1.698;2023-11-18T11:26:23;16.60;99.90
16863;DHT22;52193;48.216;-1.698;2023-11-18T11:29:01;16.60;99.90
16863;DHT22;52193;48.216;-1.698;2023-11-18T11:31:34;16.70;99.90
16863;DHT22;52193;48.216;-1.698;2023-11-18T11:34:06;16.70;99.90
16863;DHT22;52193;48.216;-1.698;2023-11-18T11:36:43;16.70;99.90
16863;DHT22;52193;48.216;-1.698;2023-11-18T11:39:13;16.70;99.90
16863;DHT22;52193;48.216;-1.698;2023-11-18T11:41:43;16.70;99.90
16863;DHT22;52193;48.216;-1.698;2023-11-18T11:44:12;16.70;99.90
16863;DHT22;52193;48.216;-1.698;2023-11-18T11:46:40;16.70;99.90
16863;DHT22;52193;48.216;-1.698;2023-11-18T11:49:10;16.80;99.90
16863;DHT22;52193;48.216;-1.698;2023-11-18T11:51:48;16.80;99.90
16863;DHT22;52193;48.216;-1.698;2023-11-18T11:54:23;16.80;99.90
16863;DHT22;52193;48.216;-1.698;2023-11-18T11:56:56;16.80;99.90
16863;DHT22;52193;48.216;-1.698;2023-11-18T11:59:35;16.80;99.90
16863;DHT22;52193;48.216;-1.698;2023-11-18T12:02:22;16.80;99.90
16863;DHT22;52193;48.216;-1.698;2023-11-18T12:04:54;16.80;99.90
16863;DHT22;52193;48.216;-1.698;2023-11-18T12:07:25;16.80;99.90
16863;DHT22;52193;48.216;-1.698;2023-11-18T12:09:55;16.80;99.90
16863;DHT22;52193;48.216;-1.698;2023-11-18T12:12:24;16.80;99.90
16863;DHT22;52193;48.216;-1.698;2023-11-18T12:14:53;16.90;99.90
16863;DHT22;52193;48.216;-1.698;2023-11-18T12:17:22;16.90;99.90
16863;DHT22;52193;48.216;-1.698;2023-11-18T12:19:51;16.90;99.90
16863;DHT22;52193;48.216;-1.698;2023-11-18T12:22:24;16.90;99.90
16863;DHT22;52193;48.216;-1.698;2023-11-18T12:28:14;16.90;99.90
16863;DHT22;52193;48.216;-1.698;2023-11-18T12:30:42;17.00;99.90
16863;DHT22;52193;48.216;-1.698;2023-11-18T12:33:18;17.00;99.90
16863;DHT22;52193;48.216;-1.698;2023-11-18T12:39:32;17.00;99.90
16863;DHT22;52193;48.216;-1.698;2023-11-18T12:42:06;17.10;99.90
16863;DHT22;52193;48.216;-1.698;2023-11-18T12:44:41;17.10;99.90
16863;DHT22;52193;48.216;-1.698;2023-11-18T12:47:20;17.10;99.90
16863;DHT22;52193;48.216;-1.698;2023-11-18T12:49:48;17.10;99.90
16863;DHT22;52193;48.216;-1.698;2023-11-18T12:52:20;17.20;99.90
16863;DHT22;52193;48.216;-1.698;2023-11-18T12:54:49;17.20;99.90
16863;DHT22;52193;48.216;-1.698;2023-11-18T12:57:18;17.20;99.90
16863;DHT22;52193;48.216;-1.698;2023-11-18T12:59:49;17.20;99.90
16863;DHT22;52193;48.216;-1.698;2023-11-18T13:02:16;17.30;99.90
16863;DHT22;52193;48.216;-1.698;2023-11-18T13:04:45;17.30;99.90
16863;DHT22;52193;48.216;-1.698;2023-11-18T13:07:13;17.30;99.90
16863;DHT22;52193;48.216;-1.698;2023-11-18T13:09:40;17.30;99.90
16863;DHT22;52193;48.216;-1.698;2023-11-18T13:12:11;17.30;99.90
16863;DHT22;52193;48.216;-1.698;2023-11-18T13:14:41;17.30;99.90
16863;DHT22;52193;48.216;-1.698;2023-11-18T13:17:09;17.30;99.90
16863;DHT22;52193;48.216;-1.698;2023-11-18T13:19:37;17.40;99.90
16863;DHT22;52193;48.216;-1.698;2023-11-18T13:22:05;17.40;99.90
16863;DHT22;52193;48.216;-1.698;2023-11-18T13:24:33;17.40;99.90
16863;DHT22;52193;48.216;-1.698;2023-11-18T13:27:01;17.40;99.90
16863;DHT22;52193;48.216;-1.698;2023-11-18T13:29:31;17.40;99.90
16863;DHT22;52193;48.216;-1.698;2023-11-18T13:31:58;17.40;99.90
16863;DHT22;52193;48.216;-1.698;2023-11-18T13:34:29;17.40;99.90
16863;DHT22;52193;48.216;-1.698;2023-11-18T13:36:58;17.50;99.90
16863;DHT22;52193;48.216;-1.698;2023-11-18T13:39:26;17.40;99.90
16863;DHT22;52193;48.216;-1.698;2023-11-18T13:41:54;17.40;99.90
16863;DHT22;52193;48.216;-1.698;2023-11-18T13:44:37;17.50;99.90
16863;DHT22;52193;48.216;-1.698;2023-11-18T13:47:05;17.50;99.90
16863;DHT22;52193;48.216;-1.698;2023-11-18T13:49:32;17.50;99.90
16863;DHT22;52193;48.216;-1.698;2023-11-18T13:52:00;17.50;99.90
16863;DHT22;52193;48.216;-1.698;2023-11-18T13:54:27;17.50;99.90
16863;DHT22;52193;48.216;-1.698;2023-11-18T13:56:55;17.50;99.90
16863;DHT22;52193;48.216;-1.698;2023-11-18T13:59:23;17.50;99.90
16863;DHT22;52193;48.216;-1.698;2023-11-18T14:01:53;17.50;99.90
16863;DHT22;52193;48.216;-1.698;2023-11-18T14:04:23;17.50;99.90
16863;DHT22;52193;48.216;-1.698;2023-11-18T14:06:51;17.50;99.90
16863;DHT22;52193;48.216;-1.698;2023-11-18T14:09:19;17.50;99.90
16863;DHT22;52193;48.216;-1.698;2023-11-18T14:11:47;17.50;99.90
16863;DHT22;52193;48.216;-1.698;2023-11-18T14:14:14;17.50;99.90
16863;DHT22;52193;48.216;-1.698;2023-11-18T14:16:43;17.50;99.90
16863;DHT22;52193;48.216;-1.698;2023-11-18T14:19:12;17.50;99.90
16863;DHT22;52193;48.216;-1.698;2023-11-18T14:21:39;17.50;99.90
16863;DHT22;52193;48.216;-1.698;2023-11-18T14:24:07;17.50;99.90
16863;DHT22;52193;48.216;-1.698;2023-11-18T14:26:36;17.50;99.90
16863;DHT22;52193;48.216;-1.698;2023-11-18T14:29:03;17.50;99.90
16863;DHT22;52193;48.216;-1.698;2023-11-18T14:31:29;17.50;99.90
16863;DHT22;52193;48.216;-1.698;2023-11-18T14:33:56;17.50;99.90
16863;DHT22;52193;48.216;-1.698;2023-11-18T14:36:25;17.40;99.90
16863;DHT22;52193;48.216;-1.698;2023-11-18T14:38:52;17.50;99.90
16863;DHT22;52193;48.216;-1.698;2023-11-18T14:41:19;17.40;99.90
16863;DHT22;52193;48.216;-1.698;2023-11-18T14:43:50;17.40;99.90
16863;DHT22;52193;48.216;-1.698;2023-11-18T14:46:17;17.40;99.90
16863;DHT22;52193;48.216;-1.698;2023-11-18T14:48:45;17.40;99.90
16863;DHT22;52193;48.216;-1.698;2023-11-18T14:51:12;17.40;99.90
16863;DHT22;52193;48.216;-1.698;2023-11-18T14:53:40;17.40;99.90
16863;DHT22;52193;48.216;-1.698;2023-11-18T14:56:09;17.40;99.90
16863;DHT22;52193;48.216;-1.698;2023-11-18T14:58:35;17.40;99.90
16863;DHT22;52193;48.216;-1.698;2023-11-18T15:01:03;17.40;99.90
16863;DHT22;52193;48.216;-1.698;2023-11-18T15:03:32;17.40;99.90
16863;DHT22;52193;48.216;-1.698;2023-11-18T15:05:59;17.40;99.90
16863;DHT22;52193;48.216;-1.698;2023-11-18T15:08:26;17.40;99.90
16863;DHT22;52193;48.216;-1.698;2023-11-18T15:10:54;17.50;99.90
16863;DHT22;52193;48.216;-1.698;2023-11-18T15:13:24;17.50;99.90
16863;DHT22;52193;48.216;-1.698;2023-11-18T15:15:51;17.50;99.90
16863;DHT22;52193;48.216;-1.698;2023-11-18T15:18:18;17.50;99.90
16863;DHT22;52193;48.216;-1.698;2023-11-18T15:20:46;17.50;99.90
16863;DHT22;52193;48.216;-1.698;2023-11-18T15:23:14;17.50;99.90
16863;DHT22;52193;48.216;-1.698;2023-11-18T15:25:42;17.50;99.90
16863;DHT22;52193;48.216;-1.698;2023-11-18T15:28:10;17.50;99.90
16863;DHT22;52193;48.216;-1.698;2023-11-18T15:30:37;17.50;99.90
16863;DHT22;52193;48.216;-1.698;2023-11-18T15:33:05;17.50;99.90